sensor_id;sensor_type;location;lat;lon;timestamp;P1;durP1;ratioP1;P2;durP2;ratioP2
55114;SDS011;41010;53.252;5.786;2023-03-14T00:01:36;29.15;;;4.13;;
55114;SDS011;41010;53.252;5.786;2023-03-14T00:04:03;33.13;;;4.22;;
55114;SDS011;41010;53.252;5.786;2023-03-14T00:06:31;25.35;;;4.57;;
55114;SDS011;41010;53.252;5.786;2023-03-14T00:08:58;27.52;;;4.15;;
55114;SDS011;41010;53.252;5.786;2023-03-14T00:11:25;24.50;;;4.63;;
55114;SDS011;41010;53.252;5.786;2023-03-14T00:13:53;27.48;;;3.92;;
55114;SDS011;41010;53.252;5.786;2023-03-14T00:16:20;29.20;;;4.57;;
55114;SDS011;41010;53.252;5.786;2023-03-14T00:18:49;22.98;;;4.53;;
55114;SDS011;41010;53.252;5.786;2023-03-14T00:21:17;26.73;;;4.13;;
55114;SDS011;41010;53.252;5.786;2023-03-14T00:23:44;30.02;;;4.60;;
55114;SDS011;41010;53.252;5.786;2023-03-14T00:26:12;24.95;;;3.65;;
55114;SDS011;41010;53.252;5.786;2023-03-14T00:28:40;25.17;;;3.55;;
55114;SDS011;41010;53.252;5.786;2023-03-14T00:31:09;18.08;;;3.10;;
55114;SDS011;41010;53.252;5.786;2023-03-14T00:33:38;23.27;;;3.60;;
55114;SDS011;41010;53.252;5.786;2023-03-14T00:36:08;27.05;;;3.47;;
55114;SDS011;41010;53.252;5.786;2023-03-14T00:38:36;23.30;;;3.30;;
55114;SDS011;41010;53.252;5.786;2023-03-14T00:41:04;30.45;;;4.07;;
55114;SDS011;41010;53.252;5.786;2023-03-14T00:43:31;34.13;;;4.60;;
55114;SDS011;41010;53.252;5.786;2023-03-14T00:45:58;22.63;;;3.40;;
55114;SDS011;41010;53.252;5.786;2023-03-14T00:48:26;28.90;;;4.38;;
55114;SDS011;41010;53.252;5.786;2023-03-14T00:50:53;23.73;;;3.85;;
55114;SDS011;41010;53.252;5.786;2023-03-14T00:53:21;27.48;;;4.32;;
55114;SDS011;41010;53.252;5.786;2023-03-14T00:55:49;21.02;;;3.60;;
55114;SDS011;41010;53.252;5.786;2023-03-14T00:58:17;27.10;;;4.40;;
55114;SDS011;41010;53.252;5.786;2023-03-14T01:00:44;31.00;;;4.40;;
55114;SDS011;41010;53.252;5.786;2023-03-14T01:03:12;27.67;;;3.78;;
55114;SDS011;41010;53.252;5.786;2023-03-14T01:05:40;22.20;;;3.40;;
55114;SDS011;41010;53.252;5.786;2023-03-14T01:08:07;22.55;;;3.38;;
55114;SDS011;41010;53.252;5.786;2023-03-14T01:10:38;31.77;;;4.07;;
55114;SDS011;41010;53.252;5.786;2023-03-14T01:13:06;21.58;;;3.13;;
55114;SDS011;41010;53.252;5.786;2023-03-14T01:15:33;23.20;;;3.75;;
55114;SDS011;41010;53.252;5.786;2023-03-14T01:18:01;26.52;;;3.30;;
55114;SDS011;41010;53.252;5.786;2023-03-14T01:20:28;31.70;;;4.78;;
55114;SDS011;41010;53.252;5.786;2023-03-14T01:22:56;25.75;;;3.25;;
55114;SDS011;41010;53.252;5.786;2023-03-14T01:25:23;41.80;;;4.35;;
55114;SDS011;41010;53.252;5.786;2023-03-14T01:27:51;34.40;;;4.28;;
55114;SDS011;41010;53.252;5.786;2023-03-14T01:30:19;33.95;;;3.58;;
55114;SDS011;41010;53.252;5.786;2023-03-14T01:32:46;25.77;;;4.07;;
55114;SDS011;41010;53.252;5.786;2023-03-14T01:35:13;28.63;;;4.40;;
55114;SDS011;41010;53.252;5.786;2023-03-14T01:37:40;24.55;;;3.80;;
55114;SDS011;41010;53.252;5.786;2023-03-14T01:40:10;30.15;;;4.75;;
55114;SDS011;41010;53.252;5.786;2023-03-14T01:42:44;29.33;;;4.15;;
55114;SDS011;41010;53.252;5.786;2023-03-14T01:47:54;32.80;;;4.63;;
55114;SDS011;41010;53.252;5.786;2023-03-14T01:50:22;28.70;;;4.50;;
55114;SDS011;41010;53.252;5.786;2023-03-14T01:52:49;31.38;;;4.43;;
55114;SDS011;41010;53.252;5.786;2023-03-14T01:55:19;28.70;;;4.13;;
55114;SDS011;41010;53.252;5.786;2023-03-14T01:57:49;28.08;;;4.32;;
55114;SDS011;41010;53.252;5.786;2023-03-14T02:00:18;33.30;;;4.32;;
55114;SDS011;41010;53.252;5.786;2023-03-14T02:02:47;28.05;;;4.07;;
55114;SDS011;41010;53.252;5.786;2023-03-14T02:05:17;28.65;;;4.30;;
55114;SDS011;41010;53.252;5.786;2023-03-14T02:07:46;32.35;;;4.82;;
55114;SDS011;41010;53.252;5.786;2023-03-14T02:10:15;35.45;;;4.63;;
55114;SDS011;41010;53.252;5.786;2023-03-14T02:12:44;24.85;;;3.60;;
55114;SDS011;41010;53.252;5.786;2023-03-14T02:15:12;35.65;;;4.05;;
55114;SDS011;41010;53.252;5.786;2023-03-14T02:17:39;34.95;;;4.45;;
55114;SDS011;41010;53.252;5.786;2023-03-14T02:20:13;35.72;;;4.65;;
55114;SDS011;41010;53.252;5.786;2023-03-14T02:22:45;31.90;;;4.43;;
55114;SDS011;41010;53.252;5.786;2023-03-14T02:25:15;31.95;;;4.38;;
55114;SDS011;41010;53.252;5.786;2023-03-14T02:27:45;31.65;;;4.03;;
55114;SDS011;41010;53.252;5.786;2023-03-14T02:30:13;36.58;;;4.50;;
55114;SDS011;41010;53.252;5.786;2023-03-14T02:32:43;41.75;;;4.88;;
55114;SDS011;41010;53.252;5.786;2023-03-14T02:35:11;36.63;;;4.60;;
55114;SDS011;41010;53.252;5.786;2023-03-14T02:37:41;35.60;;;4.35;;
55114;SDS011;41010;53.252;5.786;2023-03-14T02:40:10;34.97;;;4.57;;
55114;SDS011;41010;53.252;5.786;2023-03-14T02:42:37;44.85;;;4.32;;
55114;SDS011;41010;53.252;5.786;2023-03-14T02:47:52;37.92;;;4.72;;
55114;SDS011;41010;53.252;5.786;2023-03-14T02:50:22;48.22;;;4.68;;
55114;SDS011;41010;53.252;5.786;2023-03-14T02:52:50;40.22;;;4.75;;
55114;SDS011;41010;53.252;5.786;2023-03-14T02:55:19;40.40;;;4.80;;
55114;SDS011;41010;53.252;5.786;2023-03-14T02:57:47;45.35;;;5.20;;
55114;SDS011;41010;53.252;5.786;2023-03-14T03:00:15;50.45;;;5.55;;
55114;SDS011;41010;53.252;5.786;2023-03-14T03:02:42;61.03;;;4.43;;
55114;SDS011;41010;53.252;5.786;2023-03-14T03:05:11;46.85;;;5.95;;
55114;SDS011;41010;53.252;5.786;2023-03-14T03:07:38;39.70;;;4.47;;
55114;SDS011;41010;53.252;5.786;2023-03-14T03:10:05;55.03;;;5.68;;
55114;SDS011;41010;53.252;5.786;2023-03-14T03:12:33;42.95;;;4.82;;
55114;SDS011;41010;53.252;5.786;2023-03-14T03:15:00;55.08;;;5.43;;
55114;SDS011;41010;53.252;5.786;2023-03-14T03:17:27;51.72;;;5.22;;
55114;SDS011;41010;53.252;5.786;2023-03-14T03:19:54;58.88;;;6.85;;
55114;SDS011;41010;53.252;5.786;2023-03-14T03:22:23;63.40;;;6.40;;
55114;SDS011;41010;53.252;5.786;2023-03-14T03:24:50;54.50;;;5.18;;
55114;SDS011;41010;53.252;5.786;2023-03-14T03:27:18;47.28;;;5.68;;
55114;SDS011;41010;53.252;5.786;2023-03-14T03:29:45;43.55;;;4.78;;
55114;SDS011;41010;53.252;5.786;2023-03-14T03:32:12;52.00;;;5.43;;
55114;SDS011;41010;53.252;5.786;2023-03-14T03:34:39;50.25;;;5.43;;
55114;SDS011;41010;53.252;5.786;2023-03-14T03:37:07;55.28;;;6.05;;
55114;SDS011;41010;53.252;5.786;2023-03-14T03:39:35;48.90;;;5.32;;
55114;SDS011;41010;53.252;5.786;2023-03-14T03:42:03;52.85;;;5.90;;
55114;SDS011;41010;53.252;5.786;2023-03-14T03:44:30;56.20;;;7.05;;
55114;SDS011;41010;53.252;5.786;2023-03-14T03:46:57;63.10;;;6.57;;
55114;SDS011;41010;53.252;5.786;2023-03-14T03:49:28;62.17;;;6.75;;
55114;SDS011;41010;53.252;5.786;2023-03-14T03:51:55;51.17;;;5.22;;
55114;SDS011;41010;53.252;5.786;2023-03-14T03:54:22;54.50;;;5.22;;
55114;SDS011;41010;53.252;5.786;2023-03-14T03:56:51;56.17;;;7.82;;
55114;SDS011;41010;53.252;5.786;2023-03-14T03:59:18;52.50;;;6.15;;
55114;SDS011;41010;53.252;5.786;2023-03-14T04:01:45;59.22;;;6.25;;
55114;SDS011;41010;53.252;5.786;2023-03-14T04:04:12;52.03;;;6.25;;
55114;SDS011;41010;53.252;5.786;2023-03-14T04:06:40;42.35;;;6.18;;
55114;SDS011;41010;53.252;5.786;2023-03-14T04:09:08;57.47;;;5.63;;
55114;SDS011;41010;53.252;5.786;2023-03-14T04:11:35;50.25;;;5.47;;
55114;SDS011;41010;53.252;5.786;2023-03-14T04:14:05;50.58;;;5.95;;
55114;SDS011;41010;53.252;5.786;2023-03-14T04:16:32;53.65;;;7.55;;
55114;SDS011;41010;53.252;5.786;2023-03-14T04:19:00;52.03;;;5.18;;
55114;SDS011;41010;53.252;5.786;2023-03-14T04:21:27;57.13;;;6.78;;
55114;SDS011;41010;53.252;5.786;2023-03-14T04:23:54;47.25;;;5.63;;
55114;SDS011;41010;53.252;5.786;2023-03-14T04:26:21;59.83;;;5.95;;
55114;SDS011;41010;53.252;5.786;2023-03-14T04:28:49;60.30;;;6.60;;
55114;SDS011;41010;53.252;5.786;2023-03-14T04:31:18;62.50;;;6.72;;
55114;SDS011;41010;53.252;5.786;2023-03-14T04:33:45;71.32;;;6.90;;
55114;SDS011;41010;53.252;5.786;2023-03-14T04:36:13;56.47;;;6.53;;
55114;SDS011;41010;53.252;5.786;2023-03-14T04:38:40;57.58;;;6.65;;
55114;SDS011;41010;53.252;5.786;2023-03-14T04:41:07;51.88;;;6.32;;
55114;SDS011;41010;53.252;5.786;2023-03-14T04:43:35;59.38;;;6.82;;
55114;SDS011;41010;53.252;5.786;2023-03-14T04:46:02;50.50;;;6.35;;
55114;SDS011;41010;53.252;5.786;2023-03-14T04:48:31;37.33;;;6.07;;
55114;SDS011;41010;53.252;5.786;2023-03-14T04:50:58;39.33;;;5.47;;
55114;SDS011;41010;53.252;5.786;2023-03-14T04:53:25;44.75;;;6.00;;
55114;SDS011;41010;53.252;5.786;2023-03-14T04:55:53;35.85;;;5.70;;
55114;SDS011;41010;53.252;5.786;2023-03-14T04:58:21;39.50;;;7.85;;
55114;SDS011;41010;53.252;5.786;2023-03-14T05:00:48;35.90;;;5.00;;
55114;SDS011;41010;53.252;5.786;2023-03-14T05:03:15;32.45;;;4.78;;
55114;SDS011;41010;53.252;5.786;2023-03-14T05:05:44;42.38;;;5.65;;
55114;SDS011;41010;53.252;5.786;2023-03-14T05:08:12;28.65;;;5.20;;
55114;SDS011;41010;53.252;5.786;2023-03-14T05:10:39;32.85;;;5.82;;
55114;SDS011;41010;53.252;5.786;2023-03-14T05:13:06;33.20;;;5.82;;
55114;SDS011;41010;53.252;5.786;2023-03-14T05:15:34;26.13;;;5.47;;
55114;SDS011;41010;53.252;5.786;2023-03-14T05:18:01;39.95;;;5.85;;
55114;SDS011;41010;53.252;5.786;2023-03-14T05:20:28;25.58;;;5.47;;
55114;SDS011;41010;53.252;5.786;2023-03-14T05:22:57;28.10;;;5.45;;
55114;SDS011;41010;53.252;5.786;2023-03-14T05:25:24;20.27;;;5.03;;
55114;SDS011;41010;53.252;5.786;2023-03-14T05:27:53;30.42;;;4.55;;
55114;SDS011;41010;53.252;5.786;2023-03-14T05:30:20;28.38;;;3.85;;
55114;SDS011;41010;53.252;5.786;2023-03-14T05:32:48;30.27;;;3.67;;
55114;SDS011;41010;53.252;5.786;2023-03-14T05:35:15;13.23;;;1.98;;
55114;SDS011;41010;53.252;5.786;2023-03-14T05:37:42;10.88;;;1.45;;
55114;SDS011;41010;53.252;5.786;2023-03-14T05:40:11;32.15;;;3.13;;
55114;SDS011;41010;53.252;5.786;2023-03-14T05:42:39;21.23;;;1.80;;
55114;SDS011;41010;53.252;5.786;2023-03-14T05:45:06;22.20;;;1.40;;
55114;SDS011;41010;53.252;5.786;2023-03-14T05:47:34;19.52;;;2.33;;
55114;SDS011;41010;53.252;5.786;2023-03-14T05:50:01;25.00;;;2.03;;
55114;SDS011;41010;53.252;5.786;2023-03-14T05:52:28;35.83;;;3.80;;
55114;SDS011;41010;53.252;5.786;2023-03-14T05:54:56;31.13;;;3.60;;
55114;SDS011;41010;53.252;5.786;2023-03-14T05:57:24;42.85;;;4.57;;
55114;SDS011;41010;53.252;5.786;2023-03-14T05:59:51;30.25;;;3.58;;
55114;SDS011;41010;53.252;5.786;2023-03-14T06:02:19;41.47;;;4.35;;
55114;SDS011;41010;53.252;5.786;2023-03-14T06:04:46;31.00;;;4.07;;
55114;SDS011;41010;53.252;5.786;2023-03-14T06:07:13;22.98;;;4.05;;
55114;SDS011;41010;53.252;5.786;2023-03-14T06:09:40;28.15;;;4.50;;
55114;SDS011;41010;53.252;5.786;2023-03-14T06:12:07;39.30;;;13.77;;
55114;SDS011;41010;53.252;5.786;2023-03-14T06:14:36;31.13;;;3.65;;
55114;SDS011;41010;53.252;5.786;2023-03-14T06:17:03;28.67;;;1.60;;
55114;SDS011;41010;53.252;5.786;2023-03-14T06:19:31;22.58;;;1.58;;
55114;SDS011;41010;53.252;5.786;2023-03-14T06:21:58;17.70;;;1.50;;
55114;SDS011;41010;53.252;5.786;2023-03-14T06:24:25;16.60;;;1.60;;
55114;SDS011;41010;53.252;5.786;2023-03-14T06:26:52;20.45;;;1.30;;
55114;SDS011;41010;53.252;5.786;2023-03-14T06:29:19;13.15;;;1.45;;
55114;SDS011;41010;53.252;5.786;2023-03-14T06:31:48;13.60;;;1.17;;
55114;SDS011;41010;53.252;5.786;2023-03-14T06:34:15;16.50;;;1.52;;
55114;SDS011;41010;53.252;5.786;2023-03-14T06:36:42;12.60;;;1.10;;
55114;SDS011;41010;53.252;5.786;2023-03-14T06:39:10;16.08;;;1.02;;
55114;SDS011;41010;53.252;5.786;2023-03-14T06:41:37;17.02;;;1.27;;
55114;SDS011;41010;53.252;5.786;2023-03-14T06:44:04;7.63;;;0.73;;
55114;SDS011;41010;53.252;5.786;2023-03-14T06:46:32;23.00;;;3.22;;
55114;SDS011;41010;53.252;5.786;2023-03-14T06:49:00;14.82;;;1.30;;
55114;SDS011;41010;53.252;5.786;2023-03-14T06:51:28;10.80;;;1.02;;
55114;SDS011;41010;53.252;5.786;2023-03-14T06:53:55;7.57;;;0.73;;
55114;SDS011;41010;53.252;5.786;2023-03-14T06:56:22;10.40;;;1.00;;
55114;SDS011;41010;53.252;5.786;2023-03-14T06:58:49;13.63;;;1.23;;
55114;SDS011;41010;53.252;5.786;2023-03-14T07:01:17;10.75;;;1.13;;
55114;SDS011;41010;53.252;5.786;2023-03-14T07:03:47;12.45;;;1.05;;
55114;SDS011;41010;53.252;5.786;2023-03-14T07:06:15;14.55;;;1.58;;
55114;SDS011;41010;53.252;5.786;2023-03-14T07:08:43;14.73;;;1.35;;
55114;SDS011;41010;53.252;5.786;2023-03-14T07:11:10;19.02;;;1.40;;
55114;SDS011;41010;53.252;5.786;2023-03-14T07:13:37;13.63;;;1.02;;
55114;SDS011;41010;53.252;5.786;2023-03-14T07:16:05;9.30;;;0.93;;
55114;SDS011;41010;53.252;5.786;2023-03-14T07:18:32;19.05;;;1.45;;
55114;SDS011;41010;53.252;5.786;2023-03-14T07:20:59;10.70;;;1.40;;
55114;SDS011;41010;53.252;5.786;2023-03-14T07:23:28;11.65;;;1.15;;
55114;SDS011;41010;53.252;5.786;2023-03-14T07:25:56;18.95;;;1.88;;
55114;SDS011;41010;53.252;5.786;2023-03-14T07:28:23;22.85;;;1.73;;
55114;SDS011;41010;53.252;5.786;2023-03-14T07:30:50;15.05;;;1.80;;
55114;SDS011;41010;53.252;5.786;2023-03-14T07:33:17;20.58;;;2.38;;
55114;SDS011;41010;53.252;5.786;2023-03-14T07:35:46;20.45;;;1.63;;
55114;SDS011;41010;53.252;5.786;2023-03-14T07:38:13;23.25;;;2.30;;
55114;SDS011;41010;53.252;5.786;2023-03-14T07:40:42;19.83;;;2.33;;
55114;SDS011;41010;53.252;5.786;2023-03-14T07:43:09;27.08;;;3.80;;
55114;SDS011;41010;53.252;5.786;2023-03-14T07:45:37;27.00;;;2.40;;
55114;SDS011;41010;53.252;5.786;2023-03-14T07:48:05;24.55;;;2.05;;
55114;SDS011;41010;53.252;5.786;2023-03-14T07:50:33;24.67;;;2.60;;
55114;SDS011;41010;53.252;5.786;2023-03-14T07:53:00;26.35;;;2.88;;
55114;SDS011;41010;53.252;5.786;2023-03-14T07:55:27;23.02;;;2.58;;
55114;SDS011;41010;53.252;5.786;2023-03-14T07:57:56;21.50;;;3.42;;
55114;SDS011;41010;53.252;5.786;2023-03-14T08:00:23;28.88;;;3.00;;
55114;SDS011;41010;53.252;5.786;2023-03-14T08:02:50;24.50;;;3.33;;
55114;SDS011;41010;53.252;5.786;2023-03-14T08:05:17;39.15;;;3.72;;
55114;SDS011;41010;53.252;5.786;2023-03-14T08:07:45;25.65;;;3.05;;
55114;SDS011;41010;53.252;5.786;2023-03-14T08:10:12;27.95;;;2.88;;
55114;SDS011;41010;53.252;5.786;2023-03-14T08:12:47;38.90;;;3.30;;
55114;SDS011;41010;53.252;5.786;2023-03-14T08:15:15;33.13;;;4.10;;
55114;SDS011;41010;53.252;5.786;2023-03-14T08:17:43;19.08;;;2.42;;
55114;SDS011;41010;53.252;5.786;2023-03-14T08:20:11;24.95;;;3.13;;
55114;SDS011;41010;53.252;5.786;2023-03-14T08:22:38;31.65;;;4.40;;
55114;SDS011;41010;53.252;5.786;2023-03-14T08:25:06;19.92;;;2.30;;
55114;SDS011;41010;53.252;5.786;2023-03-14T08:27:33;37.72;;;4.30;;
55114;SDS011;41010;53.252;5.786;2023-03-14T08:30:03;25.48;;;3.83;;
55114;SDS011;41010;53.252;5.786;2023-03-14T08:32:32;25.77;;;2.97;;
55114;SDS011;41010;53.252;5.786;2023-03-14T08:34:59;24.02;;;3.83;;
55114;SDS011;41010;53.252;5.786;2023-03-14T08:37:26;31.70;;;4.35;;
55114;SDS011;41010;53.252;5.786;2023-03-14T08:39:54;31.92;;;3.38;;
55114;SDS011;41010;53.252;5.786;2023-03-14T08:42:21;33.92;;;4.60;;
55114;SDS011;41010;53.252;5.786;2023-03-14T08:44:48;37.25;;;3.88;;
55114;SDS011;41010;53.252;5.786;2023-03-14T08:47:16;30.73;;;3.88;;
55114;SDS011;41010;53.252;5.786;2023-03-14T08:49:44;26.25;;;3.47;;
55114;SDS011;41010;53.252;5.786;2023-03-14T08:52:11;30.15;;;3.35;;
55114;SDS011;41010;53.252;5.786;2023-03-14T08:54:41;37.10;;;2.95;;
55114;SDS011;41010;53.252;5.786;2023-03-14T08:57:08;19.65;;;2.58;;
55114;SDS011;41010;53.252;5.786;2023-03-14T08:59:35;22.00;;;2.45;;
55114;SDS011;41010;53.252;5.786;2023-03-14T09:02:03;20.95;;;2.10;;
55114;SDS011;41010;53.252;5.786;2023-03-14T09:04:30;26.27;;;3.53;;
55114;SDS011;41010;53.252;5.786;2023-03-14T09:06:59;30.98;;;2.83;;
55114;SDS011;41010;53.252;5.786;2023-03-14T09:09:28;31.27;;;3.30;;
55114;SDS011;41010;53.252;5.786;2023-03-14T09:11:55;36.72;;;4.85;;
55114;SDS011;41010;53.252;5.786;2023-03-14T09:14:23;27.80;;;3.42;;
55114;SDS011;41010;53.252;5.786;2023-03-14T09:16:50;33.58;;;3.42;;
55114;SDS011;41010;53.252;5.786;2023-03-14T09:19:17;26.08;;;3.67;;
55114;SDS011;41010;53.252;5.786;2023-03-14T09:21:45;31.75;;;3.20;;
55114;SDS011;41010;53.252;5.786;2023-03-14T09:24:13;31.00;;;3.53;;
55114;SDS011;41010;53.252;5.786;2023-03-14T09:26:41;27.08;;;2.78;;
55114;SDS011;41010;53.252;5.786;2023-03-14T09:29:08;36.20;;;3.20;;
55114;SDS011;41010;53.252;5.786;2023-03-14T09:31:35;32.38;;;3.70;;
55114;SDS011;41010;53.252;5.786;2023-03-14T09:34:03;23.48;;;2.83;;
55114;SDS011;41010;53.252;5.786;2023-03-14T09:36:30;20.88;;;2.40;;
55114;SDS011;41010;53.252;5.786;2023-03-14T09:38:57;30.17;;;3.30;;
55114;SDS011;41010;53.252;5.786;2023-03-14T09:41:27;29.92;;;2.72;;
55114;SDS011;41010;53.252;5.786;2023-03-14T09:43:58;33.85;;;3.25;;
55114;SDS011;41010;53.252;5.786;2023-03-14T09:46:28;26.13;;;3.15;;
55114;SDS011;41010;53.252;5.786;2023-03-14T09:48:55;19.17;;;2.70;;
55114;SDS011;41010;53.252;5.786;2023-03-14T09:51:23;26.17;;;3.10;;
55114;SDS011;41010;53.252;5.786;2023-03-14T09:53:51;19.25;;;3.85;;
55114;SDS011;41010;53.252;5.786;2023-03-14T09:56:19;21.98;;;2.22;;
55114;SDS011;41010;53.252;5.786;2023-03-14T09:58:50;22.20;;;2.33;;
55114;SDS011;41010;53.252;5.786;2023-03-14T10:01:19;23.77;;;2.35;;
55114;SDS011;41010;53.252;5.786;2023-03-14T10:03:47;21.17;;;2.22;;
55114;SDS011;41010;53.252;5.786;2023-03-14T10:06:15;21.20;;;2.35;;
55114;SDS011;41010;53.252;5.786;2023-03-14T10:08:43;17.73;;;2.22;;
55114;SDS011;41010;53.252;5.786;2023-03-14T10:11:13;22.17;;;2.40;;
55114;SDS011;41010;53.252;5.786;2023-03-14T10:13:49;21.05;;;2.60;;
55114;SDS011;41010;53.252;5.786;2023-03-14T10:16:17;10.48;;;2.00;;
55114;SDS011;41010;53.252;5.786;2023-03-14T10:18:44;16.10;;;1.77;;
55114;SDS011;41010;53.252;5.786;2023-03-14T10:21:21;15.80;;;1.70;;
55114;SDS011;41010;53.252;5.786;2023-03-14T10:23:52;11.93;;;2.05;;
55114;SDS011;41010;53.252;5.786;2023-03-14T10:26:23;11.40;;;1.65;;
55114;SDS011;41010;53.252;5.786;2023-03-14T10:28:52;11.30;;;1.65;;
55114;SDS011;41010;53.252;5.786;2023-03-14T10:31:22;16.10;;;2.03;;
55114;SDS011;41010;53.252;5.786;2023-03-14T10:33:57;12.93;;;2.33;;
55114;SDS011;41010;53.252;5.786;2023-03-14T10:36:26;15.50;;;2.35;;
55114;SDS011;41010;53.252;5.786;2023-03-14T10:38:56;18.50;;;2.17;;
55114;SDS011;41010;53.252;5.786;2023-03-14T10:41:24;4.40;;;1.15;;
55114;SDS011;41010;53.252;5.786;2023-03-14T10:43:54;11.70;;;1.48;;
55114;SDS011;41010;53.252;5.786;2023-03-14T10:46:23;9.43;;;1.45;;
55114;SDS011;41010;53.252;5.786;2023-03-14T10:48:51;9.95;;;1.20;;
55114;SDS011;41010;53.252;5.786;2023-03-14T10:51:24;11.82;;;1.58;;
55114;SDS011;41010;53.252;5.786;2023-03-14T10:53:56;14.50;;;1.52;;
55114;SDS011;41010;53.252;5.786;2023-03-14T10:56:24;8.02;;;1.30;;
55114;SDS011;41010;53.252;5.786;2023-03-14T10:58:52;9.23;;;1.30;;
55114;SDS011;41010;53.252;5.786;2023-03-14T11:01:26;16.25;;;2.28;;
55114;SDS011;41010;53.252;5.786;2023-03-14T11:03:56;9.68;;;1.30;;
55114;SDS011;41010;53.252;5.786;2023-03-14T11:06:25;10.65;;;1.30;;
55114;SDS011;41010;53.252;5.786;2023-03-14T11:08:56;7.60;;;1.00;;
55114;SDS011;41010;53.252;5.786;2023-03-14T11:11:28;7.75;;;1.27;;
55114;SDS011;41010;53.252;5.786;2023-03-14T11:13:59;9.60;;;2.95;;
55114;SDS011;41010;53.252;5.786;2023-03-14T11:16:31;9.70;;;1.33;;
55114;SDS011;41010;53.252;5.786;2023-03-14T11:19:21;5.65;;;1.05;;
55114;SDS011;41010;53.252;5.786;2023-03-14T11:21:52;9.60;;;1.50;;
55114;SDS011;41010;53.252;5.786;2023-03-14T11:24:33;11.40;;;1.77;;
55114;SDS011;41010;53.252;5.786;2023-03-14T11:27:06;19.23;;;2.35;;
55114;SDS011;41010;53.252;5.786;2023-03-14T11:29:36;10.30;;;2.08;;
55114;SDS011;41010;53.252;5.786;2023-03-14T11:32:11;11.55;;;2.03;;
55114;SDS011;41010;53.252;5.786;2023-03-14T11:34:40;16.50;;;3.78;;
55114;SDS011;41010;53.252;5.786;2023-03-14T11:37:12;17.10;;;2.00;;
55114;SDS011;41010;53.252;5.786;2023-03-14T11:39:43;18.52;;;1.98;;
55114;SDS011;41010;53.252;5.786;2023-03-14T11:42:13;14.95;;;3.35;;
55114;SDS011;41010;53.252;5.786;2023-03-14T11:44:42;11.95;;;1.45;;
55114;SDS011;41010;53.252;5.786;2023-03-14T11:47:12;16.17;;;1.92;;
55114;SDS011;41010;53.252;5.786;2023-03-14T11:49:42;10.02;;;1.90;;
55114;SDS011;41010;53.252;5.786;2023-03-14T11:52:13;13.07;;;1.77;;
55114;SDS011;41010;53.252;5.786;2023-03-14T11:54:42;15.05;;;1.70;;
55114;SDS011;41010;53.252;5.786;2023-03-14T11:57:13;11.20;;;1.88;;
55114;SDS011;41010;53.252;5.786;2023-03-14T11:59:44;13.13;;;1.88;;
55114;SDS011;41010;53.252;5.786;2023-03-14T12:02:16;9.25;;;1.83;;
55114;SDS011;41010;53.252;5.786;2023-03-14T12:04:48;10.27;;;1.23;;
55114;SDS011;41010;53.252;5.786;2023-03-14T12:07:19;12.27;;;1.90;;
55114;SDS011;41010;53.252;5.786;2023-03-14T12:09:49;8.85;;;1.25;;
55114;SDS011;41010;53.252;5.786;2023-03-14T12:12:17;10.80;;;1.27;;
55114;SDS011;41010;53.252;5.786;2023-03-14T12:14:46;9.23;;;1.05;;
55114;SDS011;41010;53.252;5.786;2023-03-14T12:17:20;14.00;;;1.40;;
55114;SDS011;41010;53.252;5.786;2023-03-14T12:19:47;13.85;;;1.70;;
55114;SDS011;41010;53.252;5.786;2023-03-14T12:25:06;6.85;;;1.52;;
55114;SDS011;41010;53.252;5.786;2023-03-14T12:30:24;7.10;;;0.93;;
55114;SDS011;41010;53.252;5.786;2023-03-14T12:33:11;7.20;;;1.30;;
55114;SDS011;41010;53.252;5.786;2023-03-14T12:35:40;9.07;;;1.63;;
55114;SDS011;41010;53.252;5.786;2023-03-14T12:38:09;9.70;;;1.58;;
55114;SDS011;41010;53.252;5.786;2023-03-14T12:40:37;13.98;;;2.13;;
55114;SDS011;41010;53.252;5.786;2023-03-14T12:43:10;12.02;;;1.75;;
55114;SDS011;41010;53.252;5.786;2023-03-14T12:48:34;12.30;;;1.70;;
55114;SDS011;41010;53.252;5.786;2023-03-14T12:51:01;8.98;;;1.50;;
55114;SDS011;41010;53.252;5.786;2023-03-14T12:53:39;11.77;;;1.50;;
55114;SDS011;41010;53.252;5.786;2023-03-14T12:59:04;9.10;;;1.42;;
55114;SDS011;41010;53.252;5.786;2023-03-14T13:01:32;9.32;;;1.50;;
55114;SDS011;41010;53.252;5.786;2023-03-14T13:04:04;10.77;;;1.35;;
55114;SDS011;41010;53.252;5.786;2023-03-14T13:06:49;12.90;;;1.50;;
55114;SDS011;41010;53.252;5.786;2023-03-14T13:09:35;6.50;;;1.40;;
55114;SDS011;41010;53.252;5.786;2023-03-14T13:12:03;7.25;;;1.20;;
55114;SDS011;41010;53.252;5.786;2023-03-14T13:14:30;10.20;;;1.30;;
55114;SDS011;41010;53.252;5.786;2023-03-14T13:16:58;10.15;;;1.90;;
55114;SDS011;41010;53.252;5.786;2023-03-14T13:19:28;6.90;;;1.30;;
55114;SDS011;41010;53.252;5.786;2023-03-14T13:21:56;12.32;;;1.55;;
55114;SDS011;41010;53.252;5.786;2023-03-14T13:24:26;12.15;;;1.70;;
55114;SDS011;41010;53.252;5.786;2023-03-14T13:26:56;11.10;;;1.65;;
55114;SDS011;41010;53.252;5.786;2023-03-14T13:29:24;13.63;;;1.95;;
55114;SDS011;41010;53.252;5.786;2023-03-14T13:31:52;13.98;;;1.60;;
55114;SDS011;41010;53.252;5.786;2023-03-14T13:34:21;10.70;;;1.42;;
55114;SDS011;41010;53.252;5.786;2023-03-14T13:36:53;13.55;;;1.80;;
55114;SDS011;41010;53.252;5.786;2023-03-14T13:39:21;9.30;;;1.40;;
55114;SDS011;41010;53.252;5.786;2023-03-14T13:41:50;14.18;;;2.42;;
55114;SDS011;41010;53.252;5.786;2023-03-14T13:44:18;10.00;;;1.63;;
55114;SDS011;41010;53.252;5.786;2023-03-14T13:46:47;9.15;;;1.52;;
55114;SDS011;41010;53.252;5.786;2023-03-14T13:49:17;6.78;;;1.60;;
55114;SDS011;41010;53.252;5.786;2023-03-14T13:51:46;9.77;;;1.73;;
55114;SDS011;41010;53.252;5.786;2023-03-14T13:54:16;8.40;;;1.40;;
55114;SDS011;41010;53.252;5.786;2023-03-14T13:56:43;7.20;;;1.40;;
55114;SDS011;41010;53.252;5.786;2023-03-14T13:59:23;8.30;;;1.20;;
55114;SDS011;41010;53.252;5.786;2023-03-14T14:01:51;10.07;;;1.92;;
55114;SDS011;41010;53.252;5.786;2023-03-14T14:04:19;10.40;;;1.25;;
55114;SDS011;41010;53.252;5.786;2023-03-14T14:06:49;11.43;;;1.25;;
55114;SDS011;41010;53.252;5.786;2023-03-14T14:09:19;12.13;;;1.70;;
55114;SDS011;41010;53.252;5.786;2023-03-14T14:11:47;12.88;;;1.67;;
55114;SDS011;41010;53.252;5.786;2023-03-14T14:14:18;6.18;;;1.60;;
55114;SDS011;41010;53.252;5.786;2023-03-14T14:16:47;9.13;;;1.77;;
55114;SDS011;41010;53.252;5.786;2023-03-14T14:19:16;9.75;;;1.85;;
55114;SDS011;41010;53.252;5.786;2023-03-14T14:21:43;9.65;;;1.92;;
55114;SDS011;41010;53.252;5.786;2023-03-14T14:24:12;10.77;;;1.88;;
55114;SDS011;41010;53.252;5.786;2023-03-14T14:26:41;6.82;;;1.75;;
55114;SDS011;41010;53.252;5.786;2023-03-14T14:29:19;11.10;;;1.92;;
55114;SDS011;41010;53.252;5.786;2023-03-14T14:31:58;8.63;;;1.65;;
55114;SDS011;41010;53.252;5.786;2023-03-14T14:34:26;11.77;;;1.80;;
55114;SDS011;41010;53.252;5.786;2023-03-14T14:36:54;11.32;;;1.80;;
55114;SDS011;41010;53.252;5.786;2023-03-14T14:39:22;9.73;;;1.48;;
55114;SDS011;41010;53.252;5.786;2023-03-14T14:41:51;8.57;;;2.15;;
55114;SDS011;41010;53.252;5.786;2023-03-14T14:44:21;10.18;;;1.70;;
55114;SDS011;41010;53.252;5.786;2023-03-14T14:46:49;9.02;;;1.52;;
55114;SDS011;41010;53.252;5.786;2023-03-14T14:49:18;12.57;;;1.92;;
55114;SDS011;41010;53.252;5.786;2023-03-14T14:51:47;8.23;;;1.52;;
55114;SDS011;41010;53.252;5.786;2023-03-14T14:54:15;10.48;;;1.83;;
55114;SDS011;41010;53.252;5.786;2023-03-14T14:56:46;10.15;;;1.58;;
55114;SDS011;41010;53.252;5.786;2023-03-14T14:59:20;10.38;;;1.48;;
55114;SDS011;41010;53.252;5.786;2023-03-14T15:01:47;7.72;;;1.30;;